createdAt,value
2023-05-05T00:00:18.678Z,100921.41
2023-05-05T00:00:40.409Z,100920.04
2023-05-05T00:01:03.221Z,100919.57
2023-05-05T00:01:25.007Z,100923.27
2023-05-05T00:01:46.906Z,100921.95
2023-05-05T00:02:09.121Z,100920.70
2023-05-05T00:02:31.187Z,100919.86
2023-05-05T00:02:53.102Z,100919.16
2023-05-05T00:03:15.349Z,100920.40
2023-05-05T00:03:37.694Z,100919.70
2023-05-05T00:03:59.649Z,100917.10
2023-05-05T00:04:22.952Z,100919.10
2023-05-05T00:04:44.845Z,100918.27
2023-05-05T00:05:06.935Z,100920.44
2023-05-05T00:05:28.674Z,100917.17
2023-05-05T00:05:50.720Z,100918.67
2023-05-05T00:06:12.496Z,100918.33
2023-05-05T00:06:34.481Z,100918.57
2023-05-05T00:06:56.183Z,100917.50
2023-05-05T00:07:17.897Z,100919.51
2023-05-05T00:07:39.847Z,100919.34
2023-05-05T00:08:01.620Z,100921.80
2023-05-05T00:08:23.607Z,100921.17
2023-05-05T00:08:46.527Z,100916.55
2023-05-05T00:09:08.300Z,100919.38
2023-05-05T00:09:30.085Z,100916.94
2023-05-05T00:09:51.870Z,100917.61
2023-05-05T00:10:13.768Z,100917.46
2023-05-05T00:10:35.556Z,100917.63
2023-05-05T00:10:57.813Z,100915.04
2023-05-05T00:11:19.624Z,100916.30
2023-05-05T00:11:41.411Z,100911.67
2023-05-05T00:12:03.191Z,100911.88
2023-05-05T00:12:24.973Z,100914.38
2023-05-05T00:12:46.738Z,100916.96
2023-05-05T00:13:09.019Z,100913.98
2023-05-05T00:13:31.353Z,100914.38
2023-05-05T00:13:53.044Z,100911.52
2023-05-05T00:14:14.934Z,100912.08
2023-05-05T00:14:36.806Z,100912.00
2023-05-05T00:14:58.592Z,100911.38
2023-05-05T00:15:20.476Z,100913.36
2023-05-05T00:15:42.675Z,100915.73
2023-05-05T00:16:04.981Z,100916.27
2023-05-05T00:16:27.193Z,100913.82
2023-05-05T00:16:48.994Z,100914.64
2023-05-05T00:17:10.956Z,100913.77
2023-05-05T00:17:33.087Z,100913.80
2023-05-05T00:17:54.848Z,100915.17
2023-05-05T00:18:17.020Z,100916.75
2023-05-05T00:18:38.734Z,100921.67
2023-05-05T00:19:00.541Z,100918.38
2023-05-05T00:19:22.353Z,100920.94
2023-05-05T00:19:44.143Z,100920.16
2023-05-05T00:20:06.756Z,100919.20
2023-05-05T00:20:28.732Z,100923.41
2023-05-05T00:20:50.616Z,100919.87
2023-05-05T00:21:12.351Z,100917.17
2023-05-05T00:21:34.086Z,100918.34
2023-05-05T00:21:55.814Z,100919.58
2023-05-05T00:22:17.661Z,100919.80
2023-05-05T00:22:39.559Z,100919.84
2023-05-05T00:23:01.549Z,100918.77
2023-05-05T00:23:23.308Z,100917.45
2023-05-05T00:23:45.098Z,100916.61
2023-05-05T00:24:06.891Z,100918.73
2023-05-05T00:24:28.672Z,100917.58
2023-05-05T00:24:50.460Z,100917.04
2023-05-05T00:25:12.340Z,100921.71
2023-05-05T00:25:34.073Z,100917.65
2023-05-05T00:25:56.108Z,100916.74
2023-05-05T00:26:18.205Z,100915.71
2023-05-05T00:26:41.154Z,100916.45
2023-05-05T00:27:03.715Z,100917.55
2023-05-05T00:27:25.602Z,100918.27
2023-05-05T00:27:47.594Z,100917.77
2023-05-05T00:28:09.581Z,100919.08
2023-05-05T00:28:31.582Z,100917.05
2023-05-05T00:28:53.827Z,100919.29
2023-05-05T00:29:15.869Z,100918.58
2023-05-05T00:29:37.661Z,100920.21
2023-05-05T00:29:59.431Z,100921.87
2023-05-05T00:30:21.218Z,100920.80
2023-05-05T00:30:42.994Z,100920.14
2023-05-05T00:31:05.180Z,100920.64
2023-05-05T00:31:27.097Z,100921.58
2023-05-05T00:31:50.905Z,100920.67
2023-05-05T00:32:12.689Z,100918.48
2023-05-05T00:32:34.490Z,100919.88
2023-05-05T00:32:56.617Z,100919.90
2023-05-05T00:33:18.562Z,100921.33
2023-05-05T00:33:41.834Z,100922.80
2023-05-05T00:34:03.604Z,100920.20
2023-05-05T00:34:25.448Z,100923.23
2023-05-05T00:34:47.190Z,100920.08
2023-05-05T00:35:08.980Z,100922.77
2023-05-05T00:35:30.810Z,100922.27
2023-05-05T00:35:52.515Z,100922.29
2023-05-05T00:36:15.022Z,100923.54
2023-05-05T00:36:36.866Z,100923.64
2023-05-05T00:36:58.653Z,100925.48
2023-05-05T00:37:20.676Z,100924.98
2023-05-05T00:37:42.630Z,100923.10
2023-05-05T00:38:05.278Z,100923.64
2023-05-05T00:38:27.443Z,100923.88
2023-05-05T00:38:49.200Z,100923.73
2023-05-05T00:39:11.008Z,100925.70
2023-05-05T00:39:33.498Z,100924.00
2023-05-05T00:39:55.518Z,100922.64
2023-05-05T00:40:18.911Z,100924.06
2023-05-05T00:40:40.680Z,100924.79
2023-05-05T00:41:02.477Z,100924.50
2023-05-05T00:41:24.222Z,100922.06
2023-05-05T00:41:45.928Z,100923.50
2023-05-05T00:42:07.726Z,100923.36
2023-05-05T00:42:38.225Z,100921.50
2023-05-05T00:42:59.928Z,100921.36
2023-05-05T00:43:21.689Z,100919.84
2023-05-05T00:43:43.559Z,100919.67
2023-05-05T00:44:05.383Z,100919.96
2023-05-05T00:44:37.252Z,100921.40
2023-05-05T00:44:59.446Z,100919.70
2023-05-05T00:45:21.341Z,100919.43
2023-05-05T00:45:47.797Z,100920.17
2023-05-05T00:46:13.305Z,100918.98
2023-05-05T00:46:35.722Z,100920.20
2023-05-05T00:46:57.574Z,100919.20
2023-05-05T00:47:19.360Z,100918.67
2023-05-05T00:47:45.506Z,100920.34
2023-05-05T00:48:07.607Z,100920.95
2023-05-05T00:48:32.391Z,100916.27
2023-05-05T00:48:54.319Z,100921.66
2023-05-05T00:49:16.571Z,100918.30
2023-05-05T00:49:38.583Z,100915.94
2023-05-05T00:50:00.451Z,100916.19
2023-05-05T00:50:22.936Z,100917.72
2023-05-05T00:50:45.149Z,100920.13
2023-05-05T00:51:09.390Z,100919.78
2023-05-05T00:51:32.103Z,100922.19
2023-05-05T00:51:53.866Z,100917.09
2023-05-05T00:52:15.656Z,100921.20
2023-05-05T00:52:37.431Z,100920.45
2023-05-05T00:53:00.857Z,100916.16
2023-05-05T00:53:22.636Z,100920.65
2023-05-05T00:53:45.344Z,100918.92
2023-05-05T00:54:07.532Z,100921.33
2023-05-05T00:54:29.529Z,100919.72
2023-05-05T00:54:51.309Z,100919.10
2023-05-05T00:55:13.209Z,100919.47
2023-05-05T00:55:35.402Z,100919.55
2023-05-05T00:55:57.174Z,100922.46
2023-05-05T00:56:19.981Z,100922.93
2023-05-05T00:56:41.972Z,100921.44
2023-05-05T00:57:03.754Z,100924.97
2023-05-05T00:57:25.541Z,100921.88
2023-05-05T00:57:47.741Z,100922.10
2023-05-05T00:58:10.158Z,100923.02
2023-05-05T00:58:32.225Z,100920.59
2023-05-05T00:58:54.110Z,100920.47
2023-05-05T00:59:15.897Z,100913.36
2023-05-05T00:59:37.676Z,100917.92
2023-05-05T00:59:59.580Z,100921.39
2023-05-05T01:00:21.660Z,100918.59
2023-05-05T01:00:43.546Z,100918.36
2023-05-05T01:01:05.331Z,100919.49
2023-05-05T01:01:27.579Z,100918.36
2023-05-05T01:01:50.577Z,100917.73
2023-05-05T01:02:12.422Z,100915.70
2023-05-05T01:02:34.250Z,100915.45
2023-05-05T01:02:56.188Z,100913.69
2023-05-05T01:03:18.114Z,100912.79
2023-05-05T01:03:40.318Z,100912.85
2023-05-05T01:04:02.551Z,100915.05
2023-05-05T01:04:24.866Z,100911.39
2023-05-05T01:04:46.666Z,100912.70
2023-05-05T01:05:08.957Z,100911.39
2023-05-05T01:05:33.210Z,100908.23
2023-05-05T01:06:15.779Z,100908.62
2023-05-05T01:06:46.618Z,100908.12
2023-05-05T01:07:27.244Z,100911.38
2023-05-05T01:07:55.138Z,100909.33
2023-05-05T01:08:43.291Z,100909.05
2023-05-05T01:09:13.074Z,100909.23
2023-05-05T01:09:47.649Z,100907.09
2023-05-05T01:10:19.554Z,100911.10
2023-05-05T01:10:46.776Z,100911.74
2023-05-05T01:11:20.838Z,100910.83
2023-05-05T01:11:48.427Z,100911.52
2023-05-05T01:12:14.780Z,100909.88
2023-05-05T01:12:48.911Z,100910.20
2023-05-05T01:13:10.752Z,100914.42
2023-05-05T01:13:43.590Z,100909.36
2023-05-05T01:14:18.777Z,100911.78
2023-05-05T01:14:41.478Z,100913.22
2023-05-05T01:15:09.917Z,100910.78
2023-05-05T01:15:35.377Z,100912.02
2023-05-05T01:16:15.011Z,100912.30
2023-05-05T01:16:37.708Z,100915.70
2023-05-05T01:17:00.278Z,100914.04
2023-05-05T01:17:24.788Z,100915.83
2023-05-05T01:17:49.092Z,100909.34
2023-05-05T01:18:23.698Z,100914.73
2023-05-05T01:18:51.745Z,100914.38
2023-05-05T01:19:19.268Z,100910.32
2023-05-05T01:19:41.050Z,100911.98
2023-05-05T01:20:06.607Z,100912.89
2023-05-05T01:20:43.473Z,100910.48
2023-05-05T01:21:15.656Z,100913.07
2023-05-05T01:21:38.858Z,100909.30
2023-05-05T01:22:01.004Z,100910.88
2023-05-05T01:22:27.545Z,100912.42
2023-05-05T01:22:51.271Z,100912.85
2023-05-05T01:23:14.382Z,100912.92
2023-05-05T01:23:47.813Z,100912.31
2023-05-05T01:24:12.381Z,100914.45
2023-05-05T01:24:34.573Z,100910.48
2023-05-05T01:25:02.185Z,100911.27
2023-05-05T01:25:30.102Z,100911.25
2023-05-05T01:26:05.862Z,100910.15
2023-05-05T01:26:47.961Z,100909.27
2023-05-05T01:27:37.644Z,100909.80
2023-05-05T01:28:17.430Z,100902.81
2023-05-05T01:28:39.701Z,100900.81
2023-05-05T01:29:02.523Z,100902.13
2023-05-05T01:29:24.737Z,100903.06
2023-05-05T01:30:05.467Z,100900.72
2023-05-05T01:30:37.069Z,100901.20
2023-05-05T01:31:05.022Z,100901.95
2023-05-05T01:31:32.755Z,100901.33
2023-05-05T01:31:55.242Z,100899.81
2023-05-05T01:32:19.742Z,100905.91
2023-05-05T01:32:43.164Z,100902.98
2023-05-05T01:33:06.782Z,100903.61
2023-05-05T01:33:29.358Z,100902.31
2023-05-05T01:33:54.109Z,100902.17
2023-05-05T01:34:16.126Z,100901.97
2023-05-05T01:34:58.551Z,100904.36
2023-05-05T01:35:21.768Z,100905.60
2023-05-05T01:35:50.912Z,100906.41
2023-05-05T01:36:13.828Z,100907.09
2023-05-05T01:36:36.831Z,100905.72
2023-05-05T01:37:04.844Z,100903.91
2023-05-05T01:37:28.081Z,100909.11
2023-05-05T01:38:00.896Z,100907.30
2023-05-05T01:38:23.499Z,100909.05
2023-05-05T01:38:45.904Z,100909.16
2023-05-05T01:39:08.602Z,100906.79
2023-05-05T01:39:31.726Z,100909.91
2023-05-05T01:39:56.157Z,100910.17
2023-05-05T01:40:21.234Z,100911.91
2023-05-05T01:41:04.523Z,100908.17
2023-05-05T01:41:28.489Z,100908.39
2023-05-05T01:41:50.950Z,100910.45
2023-05-05T01:42:15.575Z,100907.16
2023-05-05T01:42:37.754Z,100908.49
2023-05-05T01:42:59.659Z,100910.19
2023-05-05T01:43:21.940Z,100909.91
2023-05-05T01:44:00.138Z,100908.05
2023-05-05T01:44:37.209Z,100907.52
2023-05-05T01:45:14.055Z,100907.96
2023-05-05T01:45:37.073Z,100906.61
2023-05-05T01:45:59.076Z,100907.87
2023-05-05T01:46:21.897Z,100909.16
2023-05-05T01:46:43.927Z,100909.05
2023-05-05T01:47:06.017Z,100907.12
2023-05-05T01:47:28.033Z,100904.70
2023-05-05T01:47:50.012Z,100907.19
2023-05-05T01:48:12.706Z,100905.96
2023-05-05T01:48:34.385Z,100908.48
2023-05-05T01:48:56.103Z,100904.45
2023-05-05T01:49:17.973Z,100907.88
2023-05-05T01:49:39.950Z,100903.66
2023-05-05T01:50:01.830Z,100905.98
2023-05-05T01:50:23.619Z,100903.79
2023-05-05T01:50:46.858Z,100908.04
2023-05-05T01:51:08.559Z,100906.34
2023-05-05T01:51:30.300Z,100909.59
2023-05-05T01:51:52.413Z,100906.10
2023-05-05T01:52:14.784Z,100903.54
2023-05-05T01:52:37.798Z,100908.77
2023-05-05T01:52:59.580Z,100909.33
2023-05-05T01:53:21.478Z,100905.48
2023-05-05T01:53:43.869Z,100910.52
2023-05-05T01:54:07.812Z,100908.81
2023-05-05T01:54:29.519Z,100907.45
2023-05-05T01:54:51.209Z,100907.12
2023-05-05T01:55:13.067Z,100906.95
2023-05-05T01:55:34.834Z,100902.82
2023-05-05T01:55:56.588Z,100905.04
2023-05-05T01:56:18.403Z,100900.90
2023-05-05T01:56:40.605Z,100901.28
2023-05-05T01:57:03.708Z,100901.48
2023-05-05T01:57:25.914Z,100901.52
2023-05-05T01:57:47.687Z,100900.70
2023-05-05T01:58:09.679Z,100899.49
2023-05-05T01:58:31.460Z,100897.77
2023-05-05T01:58:53.291Z,100897.67
2023-05-05T01:59:15.144Z,100894.22
2023-05-05T01:59:38.042Z,100894.98
2023-05-05T01:59:59.762Z,100897.50
2023-05-05T02:00:21.729Z,100895.16
2023-05-05T02:00:44.216Z,100895.33
2023-05-05T02:01:06.035Z,100891.94
2023-05-05T02:01:27.794Z,100895.16
2023-05-05T02:01:49.576Z,100892.48
2023-05-05T02:02:11.909Z,100893.94
2023-05-05T02:02:33.855Z,100890.58
2023-05-05T02:02:57.302Z,100889.90
2023-05-05T02:03:19.374Z,100892.90
2023-05-05T02:03:42.189Z,100892.43
2023-05-05T02:04:03.976Z,100892.36
2023-05-05T02:04:25.844Z,100891.14
2023-05-05T02:04:47.571Z,100888.33
2023-05-05T02:05:09.315Z,100886.74
2023-05-05T02:05:31.320Z,100887.80
2023-05-05T02:05:53.591Z,100888.33
2023-05-05T02:06:15.361Z,100887.43
2023-05-05T02:06:37.267Z,100884.07
2023-05-05T02:06:59.050Z,100882.87
2023-05-05T02:07:21.560Z,100884.98
2023-05-05T02:07:43.443Z,100882.98
2023-05-05T02:08:05.652Z,100885.24
2023-05-05T02:08:27.418Z,100883.66
2023-05-05T02:08:49.126Z,100883.30
2023-05-05T02:09:12.011Z,100883.27
2023-05-05T02:09:33.777Z,100879.35
2023-05-05T02:09:55.886Z,100878.27
2023-05-05T02:10:17.809Z,100879.48
2023-05-05T02:10:43.030Z,100877.16
2023-05-05T02:11:04.921Z,100877.46
2023-05-05T02:11:26.912Z,100879.65
2023-05-05T02:11:48.683Z,100877.33
2023-05-05T02:12:10.395Z,100879.58
2023-05-05T02:12:32.225Z,100877.86
2023-05-05T02:12:54.102Z,100873.56
2023-05-05T02:13:16.240Z,100876.10
2023-05-05T02:13:38.335Z,100874.23
2023-05-05T02:14:00.361Z,100876.33
2023-05-05T02:14:22.308Z,100872.27
2023-05-05T02:14:44.100Z,100872.48
2023-05-05T02:15:06.391Z,100872.12
2023-05-05T02:15:28.276Z,100873.38
2023-05-05T02:15:50.064Z,100873.88
2023-05-05T02:16:12.118Z,100873.04
2023-05-05T02:16:34.027Z,100872.50
2023-05-05T02:16:56.745Z,100871.63
2023-05-05T02:17:18.533Z,100867.57
2023-05-05T02:17:43.650Z,100870.80
2023-05-05T02:18:05.914Z,100872.63
2023-05-05T02:18:28.708Z,100872.98
2023-05-05T02:18:50.477Z,100869.16
2023-05-05T02:19:12.371Z,100873.41
2023-05-05T02:19:36.292Z,100870.63
2023-05-05T02:19:59.104Z,100871.92
2023-05-05T02:20:20.884Z,100873.41
2023-05-05T02:20:43.188Z,100872.21
2023-05-05T02:21:05.426Z,100871.95
2023-05-05T02:21:28.800Z,100871.13
2023-05-05T02:21:50.704Z,100872.04
2023-05-05T02:22:12.472Z,100868.15
2023-05-05T02:22:34.255Z,100870.35
2023-05-05T02:22:56.196Z,100871.35
2023-05-05T02:23:18.023Z,100869.83
2023-05-05T02:23:39.809Z,100867.43
2023-05-05T02:24:01.932Z,100868.26
2023-05-05T02:24:24.100Z,100870.58
2023-05-05T02:24:45.866Z,100868.02
2023-05-05T02:25:07.976Z,100866.80
2023-05-05T02:25:32.519Z,100867.83
2023-05-05T02:25:55.949Z,100866.98
2023-05-05T02:26:17.676Z,100870.48
2023-05-05T02:26:39.702Z,100866.89
2023-05-05T02:27:02.837Z,100864.40
2023-05-05T02:27:24.579Z,100864.59
2023-05-05T02:27:46.717Z,100867.63
2023-05-05T02:28:11.665Z,100870.52
2023-05-05T02:28:40.907Z,100866.48
2023-05-05T02:29:07.587Z,100871.98
2023-05-05T02:29:33.300Z,100868.64
2023-05-05T02:29:57.423Z,100871.20
2023-05-05T02:30:19.398Z,100871.27
2023-05-05T02:30:41.590Z,100870.08
2023-05-05T02:31:03.857Z,100871.90
2023-05-05T02:31:25.821Z,100873.75
2023-05-05T02:31:49.293Z,100870.79
2023-05-05T02:32:17.245Z,100872.92
2023-05-05T02:32:45.576Z,100873.02
2023-05-05T02:33:10.783Z,100871.52
2023-05-05T02:33:33.092Z,100874.74
2023-05-05T02:33:56.442Z,100872.66
2023-05-05T02:34:22.810Z,100873.41
2023-05-05T02:34:44.596Z,100872.80
2023-05-05T02:35:14.596Z,100871.10
2023-05-05T02:35:41.156Z,100873.09
2023-05-05T02:36:08.703Z,100870.17
2023-05-05T02:36:31.520Z,100872.36
2023-05-05T02:36:58.678Z,100874.03
2023-05-05T02:37:23.632Z,100871.94
2023-05-05T02:37:48.792Z,100876.11
2023-05-05T02:38:13.137Z,100874.21
2023-05-05T02:38:35.332Z,100872.92
2023-05-05T02:38:59.112Z,100873.61
2023-05-05T02:39:30.978Z,100874.23
2023-05-05T02:39:58.879Z,100875.74
2023-05-05T02:40:25.092Z,100875.79
2023-05-05T02:40:46.912Z,100878.71
2023-05-05T02:41:11.705Z,100878.42
2023-05-05T02:41:33.694Z,100876.70
2023-05-05T02:41:57.217Z,100881.86
2023-05-05T02:42:20.889Z,100879.45
2023-05-05T02:42:43.410Z,100878.45
2023-05-05T02:43:06.773Z,100879.58
2023-05-05T02:43:28.753Z,100879.67
2023-05-05T02:43:50.639Z,100880.07
2023-05-05T02:44:13.763Z,100883.13
2023-05-05T02:44:35.640Z,100881.20
2023-05-05T02:44:58.854Z,100879.66
2023-05-05T02:45:21.366Z,100880.26
2023-05-05T02:45:43.612Z,100885.05
2023-05-05T02:46:05.685Z,100883.73
2023-05-05T02:46:27.877Z,100885.88
2023-05-05T02:46:49.749Z,100886.41
2023-05-05T02:47:11.916Z,100880.78
2023-05-05T02:47:36.915Z,100884.05
2023-05-05T02:48:02.216Z,100888.87
2023-05-05T02:48:24.631Z,100883.58
2023-05-05T02:48:46.834Z,100887.48
2023-05-05T02:49:08.711Z,100884.90
2023-05-05T02:49:30.951Z,100885.96
2023-05-05T02:49:54.224Z,100884.06
2023-05-05T02:50:16.022Z,100881.14
2023-05-05T02:50:43.794Z,100889.06
2023-05-05T02:51:10.047Z,100888.45
2023-05-05T02:51:33.342Z,100886.89
2023-05-05T02:51:58.307Z,100886.12
2023-05-05T02:52:21.533Z,100886.81
2023-05-05T02:52:43.896Z,100886.05
2023-05-05T02:53:05.966Z,100882.88
2023-05-05T02:53:27.892Z,100886.34
2023-05-05T02:53:49.771Z,100885.09
2023-05-05T02:54:11.548Z,100884.67
2023-05-05T02:54:33.662Z,100885.43
2023-05-05T02:54:56.352Z,100880.30
2023-05-05T02:55:18.214Z,100881.75
2023-05-05T02:55:43.117Z,100881.25
2023-05-05T02:56:09.572Z,100883.86
2023-05-05T02:56:38.327Z,100879.27
2023-05-05T02:57:00.126Z,100879.23
2023-05-05T02:57:23.004Z,100879.59
2023-05-05T02:58:02.354Z,100882.29
2023-05-05T02:58:43.802Z,100880.67
2023-05-05T02:59:16.193Z,100880.91
2023-05-05T02:59:39.336Z,100881.70
2023-05-05T03:00:11.143Z,100883.14
2023-05-05T03:00:43.977Z,100883.77
2023-05-05T03:01:11.878Z,100879.98
2023-05-05T03:01:36.662Z,100880.71
2023-05-05T03:02:13.589Z,100880.96
2023-05-05T03:02:40.646Z,100879.77
2023-05-05T03:03:06.814Z,100879.11
2023-05-05T03:03:29.387Z,100877.58
2023-05-05T03:04:00.045Z,100881.14
2023-05-05T03:04:24.738Z,100882.23
2023-05-05T03:04:49.433Z,100879.66
2023-05-05T03:05:13.275Z,100880.19
2023-05-05T03:05:41.810Z,100879.39
2023-05-05T03:06:05.833Z,100883.08
2023-05-05T03:06:28.551Z,100882.55
2023-05-05T03:06:51.979Z,100880.95
2023-05-05T03:07:21.114Z,100886.11
2023-05-05T03:07:46.881Z,100883.30
2023-05-05T03:08:14.492Z,100886.44
2023-05-05T03:08:36.309Z,100886.55
2023-05-05T03:09:03.993Z,100886.71
2023-05-05T03:09:28.133Z,100887.05
2023-05-05T03:10:06.229Z,100886.81
2023-05-05T03:10:30.722Z,100886.20
2023-05-05T03:11:14.762Z,100888.98
2023-05-05T03:11:41.092Z,100886.13
2023-05-05T03:12:04.101Z,100884.89
2023-05-05T03:12:31.510Z,100888.59
2023-05-05T03:13:05.807Z,100885.48
2023-05-05T03:13:30.929Z,100889.49
2023-05-05T03:13:55.178Z,100887.63
2023-05-05T03:14:21.366Z,100888.50
2023-05-05T03:14:44.063Z,100887.52
2023-05-05T03:15:08.294Z,100889.55
2023-05-05T03:15:31.557Z,100887.22
2023-05-05T03:15:54.047Z,100890.48
2023-05-05T03:16:17.991Z,100889.36
2023-05-05T03:16:40.886Z,100889.30
2023-05-05T03:17:03.248Z,100890.70
2023-05-05T03:17:25.829Z,100888.85
2023-05-05T03:17:47.987Z,100886.48
2023-05-05T03:18:10.969Z,100888.89
2023-05-05T03:18:34.583Z,100890.07
2023-05-05T03:18:57.091Z,100892.32
2023-05-05T03:19:18.970Z,100890.55
2023-05-05T03:19:41.783Z,100888.91
2023-05-05T03:20:06.421Z,100892.20
2023-05-05T03:20:29.788Z,100890.50
2023-05-05T03:20:52.140Z,100894.47
2023-05-05T03:21:14.261Z,100891.08
2023-05-05T03:21:36.222Z,100891.92
2023-05-05T03:21:58.222Z,100890.25
2023-05-05T03:22:19.996Z,100892.74
2023-05-05T03:22:41.781Z,100895.14
2023-05-05T03:23:06.732Z,100891.92
2023-05-05T03:23:28.721Z,100891.69
2023-05-05T03:23:52.595Z,100891.42
2023-05-05T03:24:16.277Z,100892.77
2023-05-05T03:24:39.195Z,100890.42
2023-05-05T03:25:03.634Z,100891.77
2023-05-05T03:25:41.381Z,100893.64
2023-05-05T03:26:03.162Z,100892.30
2023-05-05T03:26:28.414Z,100896.46
2023-05-05T03:26:50.417Z,100890.42
2023-05-05T03:27:13.775Z,100896.65
2023-05-05T03:27:35.508Z,100892.56
2023-05-05T03:27:57.600Z,100892.41
2023-05-05T03:28:19.698Z,100892.23
2023-05-05T03:28:41.910Z,100890.95
2023-05-05T03:29:12.569Z,100893.19
2023-05-05T03:29:34.427Z,100894.60
2023-05-05T03:29:56.669Z,100896.94
2023-05-05T03:30:20.305Z,100893.80
2023-05-05T03:30:44.271Z,100895.38
2023-05-05T03:31:06.476Z,100891.87
2023-05-05T03:31:29.327Z,100894.95
2023-05-05T03:31:53.208Z,100891.71
2023-05-05T03:32:15.095Z,100897.02
2023-05-05T03:32:37.281Z,100895.52
2023-05-05T03:32:59.168Z,100898.41
2023-05-05T03:33:22.529Z,100895.02
2023-05-05T03:33:44.931Z,100897.68
2023-05-05T03:34:07.443Z,100896.42
2023-05-05T03:34:35.961Z,100895.23
2023-05-05T03:34:57.947Z,100896.79
2023-05-05T03:35:23.827Z,100894.75
2023-05-05T03:35:45.716Z,100897.95
2023-05-05T03:36:08.316Z,100897.02
2023-05-05T03:36:30.510Z,100898.52
2023-05-05T03:36:52.606Z,100893.88
2023-05-05T03:37:14.534Z,100893.12
2023-05-05T03:37:36.666Z,100895.68
2023-05-05T03:37:58.466Z,100895.59
2023-05-05T03:38:20.254Z,100897.48
2023-05-05T03:38:42.038Z,100895.69
2023-05-05T03:39:04.331Z,100894.33
2023-05-05T03:39:27.891Z,100893.39
2023-05-05T03:39:49.740Z,100891.70
2023-05-05T03:40:11.949Z,100895.94
2023-05-05T03:40:43.499Z,100895.53
2023-05-05T03:41:06.956Z,100899.70
2023-05-05T03:41:28.857Z,100894.61
2023-05-05T03:41:51.242Z,100894.08
2023-05-05T03:42:13.700Z,100897.52
2023-05-05T03:42:35.629Z,100893.63
2023-05-05T03:42:57.351Z,100892.33
2023-05-05T03:43:19.848Z,100893.95
2023-05-05T03:43:42.638Z,100892.89
2023-05-05T03:44:04.709Z,100895.95
2023-05-05T03:44:26.803Z,100892.86
2023-05-05T03:44:48.554Z,100893.60
2023-05-05T03:45:10.474Z,100892.61
2023-05-05T03:45:33.530Z,100893.52
2023-05-05T03:45:55.583Z,100893.73
2023-05-05T03:46:17.594Z,100895.52
2023-05-05T03:46:39.553Z,100895.73
2023-05-05T03:47:03.694Z,100895.60
2023-05-05T03:47:26.741Z,100896.70
2023-05-05T03:47:48.808Z,100898.53
2023-05-05T03:48:10.783Z,100898.08
2023-05-05T03:48:34.428Z,100897.77
2023-05-05T03:48:57.389Z,100898.51
2023-05-05T03:49:19.697Z,100897.14
2023-05-05T03:49:42.115Z,100896.80
2023-05-05T03:50:04.212Z,100899.39
2023-05-05T03:50:26.091Z,100899.61
2023-05-05T03:50:48.577Z,100899.86
2023-05-05T03:51:10.683Z,100897.95
2023-05-05T03:51:32.775Z,100900.17
2023-05-05T03:51:54.667Z,100901.48
2023-05-05T03:52:16.855Z,100900.30
2023-05-05T03:52:38.849Z,100901.61
2023-05-05T03:53:00.625Z,100903.15
2023-05-05T03:53:22.517Z,100903.48
2023-05-05T03:53:44.297Z,100901.52
2023-05-05T03:54:06.399Z,100900.70
2023-05-05T03:54:28.289Z,100904.08
2023-05-05T03:54:50.063Z,100902.11
2023-05-05T03:55:13.174Z,100902.11
2023-05-05T03:55:35.370Z,100898.48
2023-05-05T03:55:57.062Z,100897.57
2023-05-05T03:56:18.856Z,100902.10
2023-05-05T03:56:41.029Z,100900.92
2023-05-05T03:57:03.122Z,100903.74
2023-05-05T03:57:24.906Z,100901.80
2023-05-05T03:57:46.794Z,100901.30
2023-05-05T03:58:08.576Z,100899.56
2023-05-05T03:58:31.098Z,100900.10
2023-05-05T03:58:52.863Z,100900.23
2023-05-05T03:59:14.650Z,100899.36
2023-05-05T03:59:36.648Z,100896.60
2023-05-05T03:59:58.576Z,100898.63
2023-05-05T04:00:21.332Z,100899.34
2023-05-05T04:00:43.009Z,100896.96
2023-05-05T04:01:05.307Z,100897.36
2023-05-05T04:01:29.243Z,100896.69
2023-05-05T04:01:51.332Z,100895.68
2023-05-05T04:02:13.051Z,100893.35
2023-05-05T04:02:35.530Z,100893.39
2023-05-05T04:02:57.476Z,100892.27
2023-05-05T04:03:20.187Z,100893.50
2023-05-05T04:03:42.359Z,100894.46
2023-05-05T04:04:04.988Z,100890.56
2023-05-05T04:04:26.941Z,100893.73
2023-05-05T04:04:48.765Z,100892.49
2023-05-05T04:05:10.679Z,100892.15
2023-05-05T04:05:32.517Z,100888.98
2023-05-05T04:05:54.553Z,100892.15
2023-05-05T04:06:16.941Z,100890.91
2023-05-05T04:06:38.725Z,100888.27
2023-05-05T04:07:00.820Z,100889.16
2023-05-05T04:07:23.739Z,100890.33
2023-05-05T04:07:45.512Z,100887.36
2023-05-05T04:08:07.396Z,100891.61
2023-05-05T04:08:29.183Z,100890.46
2023-05-05T04:08:50.952Z,100886.18
2023-05-05T04:09:12.760Z,100887.95
2023-05-05T04:09:34.549Z,100889.02
2023-05-05T04:09:56.430Z,100888.14
2023-05-05T04:10:18.312Z,100889.32
2023-05-05T04:10:40.061Z,100890.23
2023-05-05T04:11:04.758Z,100887.39
2023-05-05T04:11:27.666Z,100886.68
2023-05-05T04:11:49.951Z,100887.02
2023-05-05T04:12:11.949Z,100886.83
2023-05-05T04:12:33.899Z,100890.52
2023-05-05T04:12:55.845Z,100885.12
2023-05-05T04:13:17.724Z,100885.85
2023-05-05T04:13:39.586Z,100886.30
2023-05-05T04:14:02.610Z,100883.10
2023-05-05T04:14:25.103Z,100880.59
2023-05-05T04:14:46.986Z,100883.71
2023-05-05T04:15:09.294Z,100883.33
2023-05-05T04:15:31.097Z,100882.20
2023-05-05T04:15:52.921Z,100881.83
2023-05-05T04:16:14.760Z,100880.33
2023-05-05T04:16:36.834Z,100883.64
2023-05-05T04:16:58.614Z,100881.66
2023-05-05T04:17:20.602Z,100880.91
2023-05-05T04:17:43.125Z,100881.95
2023-05-05T04:18:04.999Z,100880.20
2023-05-05T04:18:26.928Z,100878.83
2023-05-05T04:18:49.230Z,100880.08
2023-05-05T04:19:13.241Z,100877.27
2023-05-05T04:19:35.356Z,100877.83
2023-05-05T04:19:57.597Z,100878.52
2023-05-05T04:20:19.380Z,100877.09
2023-05-05T04:20:41.126Z,100879.20
2023-05-05T04:21:03.482Z,100876.44
2023-05-05T04:21:25.351Z,100879.27
2023-05-05T04:21:47.540Z,100878.08
2023-05-05T04:22:09.323Z,100874.92
2023-05-05T04:22:31.125Z,100876.44
2023-05-05T04:22:53.200Z,100875.81
2023-05-05T04:23:15.702Z,100877.41
2023-05-05T04:23:37.693Z,100875.61
2023-05-05T04:24:00.210Z,100877.95
2023-05-05T04:24:24.976Z,100875.74
2023-05-05T04:24:47.660Z,100875.27
2023-05-05T04:25:09.532Z,100877.44
2023-05-05T04:25:31.732Z,100877.13
2023-05-05T04:25:53.611Z,100880.52
2023-05-05T04:26:15.741Z,100880.02
2023-05-05T04:26:37.489Z,100877.81
2023-05-05T04:26:59.881Z,100875.73
2023-05-05T04:27:23.410Z,100879.90
2023-05-05T04:27:45.195Z,100879.09
2023-05-05T04:28:06.984Z,100880.80
2023-05-05T04:28:28.695Z,100877.31
2023-05-05T04:28:51.377Z,100881.86
2023-05-05T04:29:13.493Z,100880.88
2023-05-05T04:29:35.447Z,100878.31